aviador You're here:

WBGB Decoded Metar

BINTULU in MALAYSIA
Report Time2017-08-19 11:00:00
UTC Time2017-08-19 11:13:48
Flight Rules vfr VFR
WindVRB at 02 kt
Visibility9999 m
Phenomena:N/A
Clouds:Few 016 Hf
Scattered 150 Hf
Broken 300 Hf
Expected CloudBase > 1,600 ft AGL from Temp-Dew spread
Ceiling30,000 ft
Temp28°C (ISA +13)
Dew Point24°C (79% RH)
Heat Index31.9°C
QNH1009 hPa
Density Alt2,041 ft
Elevation16 ft
Report Wrong Elevation
Raw Report
WBGB 191100Z VRB02KT 9999 FEW016 SCT150 BKN300 28/24 Q1009=

Extra information for WBGB:More info

Metar Taf Metar & Taf Last 4 Metars F.Rules Stats Wind Profile Meteogram Temp Stats Airport Information Weather charts Add Link Nearby VenuesMetar ALERT Operation Metar Decoded Social comments